Time;durP1;ratioP1;P1;durP2;ratioP2;P2;SDS_P1;SDS_P2;PMS_P1;PMS_P2;Temp;Humidity;BMP_temperature;BMP_pressure;BME280_temperature;BME280_humidity;BME280_pressure;Samples;Min_cycle;Max_cycle;Signal;HPM_P1;HPM_P2
2023/09/30 00:01:47;;;;;;;1.17;1.17;;;16.20;65.30;15.70;96877.00;;;;4995575;28;20221;-56
2023/09/30 00:04:16;;;;;;;2.20;0.90;;;16.30;65.00;15.70;96877.00;;;;4995687;28;20190;-56
2023/09/30 00:06:43;;;;;;;0.77;0.77;;;16.20;65.00;15.60;96871.00;;;;4995633;28;20257;-56
2023/09/30 00:09:11;;;;;;;1.10;1.10;;;16.30;65.10;15.70;96873.00;;;;4995711;28;20225;-56
2023/09/30 00:11:38;;;;;;;0.63;0.63;;;16.30;65.10;15.60;96864.00;;;;4995282;28;20264;-56
2023/09/30 00:14:06;;;;;;;0.93;0.93;;;16.30;65.10;15.60;96864.00;;;;4994742;28;20301;-56
2023/09/30 00:16:33;;;;;;;1.00;1.00;;;16.20;65.40;15.60;96869.00;;;;4978405;28;20306;-56
2023/09/30 00:19:02;;;;;;;0.70;0.70;;;16.30;65.60;15.60;96867.00;;;;4995524;28;20538;-56
2023/09/30 00:21:30;;;;;;;1.53;1.33;;;16.30;65.50;15.60;96853.00;;;;4995000;28;20214;-58
2023/09/30 00:23:58;;;;;;;0.80;0.80;;;16.20;65.50;15.60;96857.00;;;;4995568;28;20642;-58
2023/09/30 00:26:25;;;;;;;3.00;1.00;;;16.20;65.30;15.60;96849.00;;;;4995305;28;20182;-58
2023/09/30 00:28:52;;;;;;;0.50;0.50;;;16.20;65.50;15.60;96854.00;;;;4994950;28;20197;-56
2023/09/30 00:31:19;;;;;;;1.80;1.30;;;16.30;65.90;15.70;96852.00;;;;4994805;28;20206;-58
2023/09/30 00:33:47;;;;;;;0.60;0.60;;;16.30;65.30;15.70;96867.00;;;;4994882;28;20572;-57
2023/09/30 00:36:14;;;;;;;1.63;1.53;;;16.30;65.50;15.70;96863.00;;;;4994833;28;20205;-57
2023/09/30 00:38:42;;;;;;;1.10;1.10;;;16.40;64.80;15.60;96856.00;;;;4994942;28;20190;-56
2023/09/30 00:41:09;;;;;;;1.30;0.93;;;16.30;65.40;15.60;96865.00;;;;4994761;28;20285;-57
2023/09/30 00:43:37;;;;;;;0.80;0.80;;;16.30;65.60;15.70;96871.00;;;;4977485;28;20289;-56
2023/09/30 00:46:11;;;;;;;4.00;1.37;;;16.40;65.50;15.60;96869.00;;;;4995187;28;20190;-56
2023/09/30 00:48:39;;;;;;;0.70;0.70;;;16.30;65.70;15.60;96852.00;;;;4994928;28;20182;-56
2023/09/30 00:51:06;;;;;;;1.50;1.40;;;16.20;65.80;15.70;96856.00;;;;4994501;28;20665;-56
2023/09/30 00:53:33;;;;;;;0.60;0.60;;;16.30;65.80;15.60;96865.00;;;;4994587;28;20210;-56
2023/09/30 00:56:03;;;;;;;0.60;0.60;;;16.30;65.70;15.60;96861.00;;;;4994408;28;20202;-58
2023/09/30 00:58:31;;;;;;;1.47;1.20;;;16.30;65.60;15.50;96859.00;;;;4995016;28;20249;-56
2023/09/30 01:01:00;;;;;;;0.60;0.60;;;16.20;65.70;15.40;96883.00;;;;4994412;28;20197;-57
2023/09/30 01:03:27;;;;;;;0.63;0.63;;;16.10;66.10;15.00;96880.00;;;;4994286;28;20277;-57
2023/09/30 01:05:55;;;;;;;1.63;1.50;;;15.80;66.30;15.00;96882.00;;;;4994435;28;20213;-56
2023/09/30 01:08:23;;;;;;;0.70;0.70;;;15.80;67.80;15.00;96875.00;;;;4994473;28;20186;-56
2023/09/30 01:10:50;;;;;;;0.83;0.83;;;15.70;68.70;15.00;96870.00;;;;4994178;28;20687;-56
2023/09/30 01:13:19;;;;;;;0.80;0.80;;;15.70;69.00;15.00;96867.00;;;;4994211;28;20218;-57
2023/09/30 01:15:47;;;;;;;2.23;1.53;;;15.70;69.40;15.10;96866.00;;;;4994663;28;20197;-57
2023/09/30 01:18:14;;;;;;;7.83;1.13;;;15.80;70.00;15.20;96861.00;;;;4994072;28;20190;-56
2023/09/30 01:20:41;;;;;;;1.33;1.23;;;15.80;70.00;15.20;96857.00;;;;4994645;28;20540;-56
2023/09/30 01:23:11;;;;;;;1.37;1.33;;;15.80;69.80;15.30;96866.00;;;;4993997;28;20194;-58
2023/09/30 01:25:44;;;;;;;0.80;0.80;;;15.90;70.30;14.70;96868.00;;;;4993943;28;20171;-57
2023/09/30 01:28:11;;;;;;;0.90;0.90;;;15.50;70.50;14.60;96873.00;;;;4994041;28;20183;-57
2023/09/30 01:30:38;;;;;;;1.03;0.90;;;15.40;73.20;14.70;96879.00;;;;4994101;28;20650;-56
2023/09/30 01:33:07;;;;;;;4.37;1.10;;;15.40;74.50;14.80;96879.00;;;;4993918;28;20305;-56
2023/09/30 01:35:34;;;;;;;1.23;1.23;;;15.40;75.80;14.90;96885.00;;;;4994004;28;20190;-56
2023/09/30 01:38:01;;;;;;;0.97;0.97;;;15.50;76.20;14.90;96873.00;;;;4994014;28;20532;-56
2023/09/30 01:40:30;;;;;;;0.70;0.70;;;15.60;75.30;15.00;96870.00;;;;4993999;28;20190;-56
2023/09/30 01:42:57;;;;;;;1.10;1.10;;;15.60;75.60;15.00;96870.00;;;;4993602;28;20210;-56
2023/09/30 01:45:24;;;;;;;0.87;0.87;;;15.70;76.10;15.10;96870.00;;;;4993921;28;20270;-56
2023/09/30 01:47:51;;;;;;;1.03;1.03;;;15.80;75.80;15.10;96869.00;;;;4993539;28;20197;-56
2023/09/30 01:50:19;;;;;;;0.77;0.77;;;15.80;75.70;15.20;96867.00;;;;4993600;28;20245;-56
2023/09/30 01:52:46;;;;;;;0.70;0.70;;;15.80;75.30;15.20;96865.00;;;;4993397;28;20214;-56
2023/09/30 01:55:14;;;;;;;1.23;1.23;;;15.90;75.10;15.20;96863.00;;;;4993745;28;20649;-56
2023/09/30 01:57:42;;;;;;;0.60;0.60;;;15.90;74.70;15.30;96866.00;;;;4993307;28;20198;-56
2023/09/30 02:00:10;;;;;;;3.73;2.43;;;15.90;74.60;15.20;96867.00;;;;4993785;28;20194;-56
2023/09/30 02:02:37;;;;;;;1.10;1.10;;;15.90;73.80;15.10;96869.00;;;;4993349;28;20296;-56
2023/09/30 02:05:07;;;;;;;1.67;1.57;;;15.80;74.10;15.20;96853.00;;;;4975877;28;20198;-56
2023/09/30 02:07:35;;;;;;;1.50;1.40;;;15.80;74.20;15.10;96869.00;;;;4993288;28;20516;-56
2023/09/30 02:10:02;;;;;;;0.70;0.70;;;15.80;74.10;15.20;96873.00;;;;4976226;28;20286;-58
2023/09/30 02:12:29;;;;;;;1.03;0.93;;;15.80;73.90;15.10;96874.00;;;;4994108;28;20210;-56
2023/09/30 02:14:59;;;;;;;1.07;1.03;;;15.80;74.60;15.10;96882.00;;;;4975813;28;20222;-56
2023/09/30 02:17:26;;;;;;;0.93;0.93;;;15.80;74.50;15.00;96872.00;;;;4975775;28;20234;-56
2023/09/30 02:19:54;;;;;;;1.97;1.47;;;15.70;74.40;15.00;96871.00;;;;4993443;28;20190;-56
2023/09/30 02:22:23;;;;;;;1.57;1.17;;;15.70;74.40;15.00;96867.00;;;;4993371;28;20214;-56
2023/09/30 02:24:50;;;;;;;1.80;1.03;;;15.70;74.80;15.00;96866.00;;;;4993247;28;20681;-56
2023/09/30 02:27:17;;;;;;;0.73;0.73;;;15.70;75.40;15.00;96868.00;;;;4993194;28;20720;-56
2023/09/30 02:29:44;;;;;;;1.53;1.43;;;15.60;75.50;15.00;96868.00;;;;4993304;28;20201;-56
2023/09/30 02:32:13;;;;;;;0.97;0.97;;;15.70;75.40;15.00;96869.00;;;;4975587;28;20222;-56
2023/09/30 02:34:42;;;;;;;0.57;0.57;;;15.70;75.60;15.00;96877.00;;;;4993403;28;20245;-56
2023/09/30 02:37:10;;;;;;;1.00;1.00;;;15.70;75.60;15.00;96877.00;;;;4993226;28;20658;-56
2023/09/30 02:39:38;;;;;;;0.70;0.70;;;15.70;75.80;15.00;96882.00;;;;4997336;28;20209;-56
2023/09/30 02:42:05;;;;;;;0.80;0.80;;;15.70;76.40;15.10;96873.00;;;;4997448;28;20209;-56
2023/09/30 02:44:32;;;;;;;1.60;0.87;;;15.70;76.10;15.10;96871.00;;;;4997011;28;20200;-57
2023/09/30 02:46:59;;;;;;;1.13;1.10;;;15.70;76.10;15.10;96883.00;;;;4997114;28;20617;-56
2023/09/30 02:49:27;;;;;;;0.63;0.63;;;15.70;75.80;15.00;96887.00;;;;4997036;28;20201;-56
2023/09/30 02:51:54;;;;;;;1.40;1.17;;;15.70;75.90;15.00;96881.00;;;;4996670;28;20233;-56
2023/09/30 02:54:21;;;;;;;0.93;0.93;;;15.70;75.90;15.10;96888.00;;;;4996834;28;20732;-56
2023/09/30 02:56:48;;;;;;;1.03;1.00;;;15.70;75.90;15.00;96888.00;;;;4996650;28;20213;-56
2023/09/30 02:59:16;;;;;;;0.60;0.60;;;15.70;74.80;15.00;96885.00;;;;4996600;28;20212;-57
2023/09/30 03:01:43;;;;;;;0.87;0.87;;;15.70;75.40;15.00;96891.00;;;;4996654;28;20292;-56
2023/09/30 03:04:12;;;;;;;1.27;1.10;;;15.70;74.70;15.00;96895.00;;;;4996558;28;20190;-57
2023/09/30 03:06:42;;;;;;;0.80;0.80;;;15.70;75.20;15.00;96898.00;;;;4996470;28;20285;-56
2023/09/30 03:09:12;;;;;;;0.93;0.93;;;15.70;75.00;15.00;96900.00;;;;4996417;28;20194;-56
2023/09/30 03:11:39;;;;;;;0.80;0.80;;;15.70;74.80;15.00;96902.00;;;;4996586;28;20234;-56
2023/09/30 03:14:07;;;;;;;3.00;0.93;;;15.70;74.80;15.00;96902.00;;;;4996733;28;20217;-56
2023/09/30 03:16:35;;;;;;;0.93;0.93;;;15.60;74.40;15.00;96900.00;;;;4996268;28;20293;-56
2023/09/30 03:19:06;;;;;;;1.13;1.13;;;15.70;74.40;15.00;96896.00;;;;4996231;28;20213;-56
2023/09/30 03:21:34;;;;;;;1.27;1.17;;;15.70;74.20;14.90;96902.00;;;;4996160;28;20214;-56
2023/09/30 03:24:04;;;;;;;1.00;1.00;;;15.60;74.00;14.90;96906.00;;;;4996137;28;20300;-56
2023/09/30 03:26:31;;;;;;;1.10;1.10;;;15.60;74.60;14.90;96916.00;;;;4996104;28;20195;-56
2023/09/30 03:28:58;;;;;;;0.77;0.77;;;15.60;74.80;14.90;96909.00;;;;4996153;28;20186;-56
2023/09/30 03:31:26;;;;;;;0.70;0.70;;;15.60;75.50;14.80;96905.00;;;;4996100;28;20218;-57
2023/09/30 03:33:53;;;;;;;0.77;0.77;;;15.60;76.30;14.90;96886.00;;;;4995913;28;20681;-56
2023/09/30 03:36:22;;;;;;;0.67;0.67;;;15.50;76.30;14.90;96895.00;;;;4995909;28;20222;-56
2023/09/30 03:38:49;;;;;;;1.50;1.40;;;15.50;76.50;14.90;96892.00;;;;4996388;28;20194;-56
2023/09/30 03:41:19;;;;;;;1.33;1.23;;;15.50;76.80;14.80;96884.00;;;;4978283;28;20214;-56
2023/09/30 03:43:47;;;;;;;1.37;1.27;;;15.60;76.20;14.80;96883.00;;;;4995674;28;20556;-56
2023/09/30 03:46:14;;;;;;;0.87;0.87;;;15.60;76.40;14.90;96870.00;;;;4995698;28;20194;-56
2023/09/30 03:48:42;;;;;;;0.97;0.97;;;15.50;76.60;14.90;96866.00;;;;4995491;28;20194;-56
2023/09/30 03:51:13;;;;;;;0.53;0.53;;;15.60;76.60;14.90;96862.00;;;;4995827;28;20214;-56
2023/09/30 03:53:41;;;;;;;2.43;1.50;;;15.60;76.20;14.90;96862.00;;;;4995544;28;20233;-56
2023/09/30 03:56:08;;;;;;;0.83;0.80;;;15.60;76.00;14.90;96871.00;;;;4995539;28;20257;-56
2023/09/30 03:58:38;;;;;;;0.73;0.73;;;15.60;75.80;14.90;96870.00;;;;4995464;28;20206;-56
2023/09/30 04:01:05;;;;;;;0.70;0.70;;;15.50;76.00;14.90;96887.00;;;;4995812;28;20210;-56
2023/09/30 04:03:33;;;;;;;1.00;1.00;;;15.50;75.70;15.00;96890.00;;;;4995448;28;20196;-56
2023/09/30 04:06:00;;;;;;;2.83;1.57;;;15.50;74.70;14.70;96891.00;;;;4995296;28;20225;-56
2023/09/30 04:08:28;;;;;;;0.77;0.77;;;15.40;73.90;14.60;96894.00;;;;4995454;28;20283;-56
2023/09/30 04:10:55;;;;;;;0.80;0.80;;;15.30;74.90;14.60;96888.00;;;;4995211;28;20627;-56
2023/09/30 04:13:22;;;;;;;0.70;0.70;;;15.30;75.30;14.60;96889.00;;;;4995566;28;20658;-56
2023/09/30 04:15:51;;;;;;;3.20;1.87;;;15.30;75.60;14.50;96895.00;;;;4995118;28;20214;-56
2023/09/30 04:18:20;;;;;;;0.83;0.83;;;15.20;75.40;14.50;96897.00;;;;4995168;28;20190;-56
2023/09/30 04:20:47;;;;;;;1.30;1.20;;;15.10;76.50;14.50;96884.00;;;;4995029;28;20253;-56
2023/09/30 04:23:15;;;;;;;1.83;1.73;;;15.20;77.50;14.50;96879.00;;;;4995877;28;20241;-56
2023/09/30 04:25:43;;;;;;;1.37;1.27;;;15.20;77.00;14.60;96887.00;;;;4995011;28;20198;-56
2023/09/30 04:28:10;;;;;;;1.00;1.00;;;15.30;77.20;14.60;96888.00;;;;4995208;28;20194;-58
2023/09/30 04:30:37;;;;;;;1.00;1.00;;;15.20;77.30;14.60;96884.00;;;;4995048;28;20198;-56
2023/09/30 04:33:07;;;;;;;0.90;0.90;;;15.30;77.60;14.60;96899.00;;;;4994779;28;20206;-56
2023/09/30 04:35:35;;;;;;;1.00;1.00;;;15.20;77.10;14.50;96905.00;;;;4995347;28;20222;-56
2023/09/30 04:38:04;;;;;;;1.00;1.00;;;15.20;77.90;14.50;96909.00;;;;4994889;28;20612;-56
2023/09/30 04:40:32;;;;;;;0.53;0.53;;;15.20;77.90;14.50;96916.00;;;;4994780;28;20194;-56
2023/09/30 04:43:00;;;;;;;0.70;0.70;;;15.20;78.20;14.40;96913.00;;;;4994540;28;20209;-56
2023/09/30 04:45:27;;;;;;;0.63;0.63;;;15.10;78.40;14.20;96912.00;;;;4994861;28;20198;-56
2023/09/30 04:47:56;;;;;;;0.70;0.70;;;14.90;79.10;13.90;96925.00;;;;4994835;28;20194;-56
2023/09/30 04:50:24;;;;;;;0.60;0.60;;;14.70;80.40;14.10;96922.00;;;;4995046;28;20296;-56
2023/09/30 04:52:52;;;;;;;1.60;1.10;;;14.70;82.40;14.10;96888.00;;;;4994457;28;20727;-56
2023/09/30 04:55:19;;;;;;;0.70;0.70;;;14.80;83.50;14.10;96923.00;;;;4995125;28;20218;-56
2023/09/30 04:57:47;;;;;;;0.87;0.80;;;14.80;83.60;14.10;96918.00;;;;4994855;28;20252;-56
2023/09/30 05:00:17;;;;;;;1.10;1.10;;;14.80;83.80;14.30;96917.00;;;;4993980;28;20190;-56
2023/09/30 05:02:45;;;;;;;0.97;0.97;;;14.90;83.10;14.30;96917.00;;;;4994152;28;20696;-56
2023/09/30 05:05:12;;;;;;;1.50;1.40;;;15.00;83.10;14.50;96932.00;;;;4976852;28;20290;-56
2023/09/30 05:07:41;;;;;;;1.47;1.37;;;15.10;83.90;14.50;96942.00;;;;4994226;28;20187;-56
2023/09/30 05:10:11;;;;;;;0.70;0.70;;;15.10;83.00;14.50;96933.00;;;;4994197;28;20187;-56
2023/09/30 05:12:38;;;;;;;0.93;0.93;;;15.20;82.10;14.60;96930.00;;;;4994110;28;20206;-57
2023/09/30 05:15:07;;;;;;;0.80;0.80;;;15.30;82.60;14.70;96926.00;;;;4993975;28;20218;-56
2023/09/30 05:17:34;;;;;;;0.80;0.80;;;15.30;82.00;14.70;96929.00;;;;4994015;28;20229;-56
2023/09/30 05:20:01;;;;;;;1.00;1.00;;;15.30;81.50;14.70;96931.00;;;;4994500;28;20643;-56
2023/09/30 05:22:29;;;;;;;0.90;0.90;;;15.40;80.60;14.60;96921.00;;;;4993838;28;20209;-56
2023/09/30 05:24:58;;;;;;;1.30;1.17;;;15.30;80.50;14.50;96927.00;;;;4993816;28;20209;-56
2023/09/30 05:27:25;;;;;;;3.80;1.00;;;15.20;80.10;14.40;96918.00;;;;4994104;28;20206;-56
2023/09/30 05:29:52;;;;;;;0.83;0.83;;;15.20;80.30;14.40;96910.00;;;;4994267;28;20677;-56
2023/09/30 05:32:19;;;;;;;1.33;1.33;;;15.10;80.30;14.40;96918.00;;;;4993659;28;20233;-58
2023/09/30 05:34:46;;;;;;;0.87;0.87;;;15.10;81.40;14.40;96908.00;;;;4993747;28;20294;-57
2023/09/30 05:37:13;;;;;;;0.60;0.60;;;15.00;80.80;14.40;96903.00;;;;4993784;28;20557;-57
2023/09/30 05:39:41;;;;;;;0.90;0.90;;;15.10;80.90;14.40;96904.00;;;;4992401;28;20205;-57
2023/09/30 05:42:11;;;;;;;1.37;1.30;;;15.10;81.00;14.40;96916.00;;;;4993762;28;20609;-56
2023/09/30 05:44:38;;;;;;;1.20;1.20;;;15.00;81.60;14.40;96919.00;;;;4994124;28;20268;-56
2023/09/30 05:47:05;;;;;;;0.70;0.70;;;15.00;80.60;14.40;96911.00;;;;4993687;28;20269;-57
2023/09/30 05:49:32;;;;;;;0.77;0.77;;;15.10;81.30;14.40;96918.00;;;;4993596;28;20194;-57
2023/09/30 05:51:59;;;;;;;1.13;1.13;;;15.10;81.20;14.40;96937.00;;;;4993471;28;20605;-57
2023/09/30 05:54:26;;;;;;;0.83;0.83;;;15.00;80.60;14.50;96927.00;;;;4993342;28;20642;-57
2023/09/30 05:56:53;;;;;;;0.70;0.70;;;15.10;80.40;14.50;96926.00;;;;4993690;28;20677;-57
2023/09/30 05:59:24;;;;;;;1.10;1.10;;;15.20;80.30;14.50;96933.00;;;;4993406;28;20186;-57
2023/09/30 06:01:52;;;;;;;1.53;1.30;;;15.10;79.60;14.50;96933.00;;;;4993467;28;20210;-57
2023/09/30 06:04:19;;;;;;;1.90;1.80;;;15.10;79.80;14.50;96935.00;;;;4993457;28;20681;-57
2023/09/30 06:06:46;;;;;;;0.90;0.90;;;15.20;79.20;14.50;96934.00;;;;4993297;28;20190;-57
2023/09/30 06:09:13;;;;;;;1.40;1.13;;;15.20;79.30;14.50;96933.00;;;;4993461;28;20197;-57
2023/09/30 06:11:41;;;;;;;3.83;1.57;;;15.20;78.50;14.50;96933.00;;;;4993872;28;20210;-57
2023/09/30 06:14:08;;;;;;;1.47;1.37;;;15.20;78.70;14.50;96946.00;;;;4997786;28;20605;-56
2023/09/30 06:16:37;;;;;;;3.03;1.83;;;15.20;78.20;14.60;96947.00;;;;4997609;28;20226;-56
2023/09/30 06:19:04;;;;;;;0.90;0.90;;;15.20;78.20;14.60;96952.00;;;;4997338;28;20565;-56
2023/09/30 06:21:34;;;;;;;1.43;1.37;;;15.20;78.70;14.70;96952.00;;;;4997836;28;20217;-57
2023/09/30 06:24:01;;;;;;;0.73;0.73;;;15.20;78.50;14.80;96960.00;;;;4997380;28;20185;-57
2023/09/30 06:26:29;;;;;;;0.60;0.60;;;15.40;78.30;14.80;96961.00;;;;4997679;28;20206;-57
2023/09/30 06:28:57;;;;;;;0.97;0.97;;;15.50;78.20;14.90;96952.00;;;;4979718;28;20195;-57
2023/09/30 06:31:24;;;;;;;0.70;0.70;;;15.50;78.60;14.80;96952.00;;;;4997147;28;20682;-56
2023/09/30 06:33:56;;;;;;;0.97;0.97;;;15.50;77.60;14.90;96959.00;;;;4997402;28;20201;-56
2023/09/30 06:36:23;;;;;;;0.70;0.70;;;15.50;78.20;14.90;96976.00;;;;4996989;28;20202;-57
2023/09/30 06:38:52;;;;;;;0.70;0.70;;;15.50;77.70;14.90;96978.00;;;;4996986;28;20240;-56
2023/09/30 06:41:19;;;;;;;0.50;0.50;;;15.50;77.50;15.00;96973.00;;;;4997023;28;20210;-56
2023/09/30 06:43:47;;;;;;;0.60;0.60;;;15.60;77.20;15.10;96974.00;;;;4997411;28;20205;-56
2023/09/30 06:46:15;;;;;;;0.77;0.77;;;15.70;77.80;15.10;96974.00;;;;4979435;28;20325;-56
2023/09/30 06:48:42;;;;;;;2.33;1.43;;;15.70;76.60;15.10;96978.00;;;;4996844;28;20198;-57
2023/09/30 06:51:17;;;;;;;1.40;1.30;;;15.70;77.60;15.20;96985.00;;;;4996781;28;20289;-56
2023/09/30 06:53:45;;;;;;;0.90;0.90;;;15.70;78.00;15.20;96988.00;;;;4996912;28;20173;-56
2023/09/30 06:56:13;;;;;;;0.80;0.80;;;15.80;77.80;15.30;96989.00;;;;4996878;28;20213;-56
2023/09/30 06:58:40;;;;;;;0.80;0.80;;;15.90;77.80;15.30;96985.00;;;;4996970;28;20249;-56
2023/09/30 07:01:07;;;;;;;0.73;0.73;;;15.90;77.60;15.40;96978.00;;;;4996879;28;20206;-57
2023/09/30 07:03:34;;;;;;;0.60;0.60;;;16.00;77.90;15.60;96979.00;;;;4996702;28;20192;-58
2023/09/30 07:06:01;;;;;;;3.10;1.23;;;16.10;77.80;15.60;96981.00;;;;4996645;28;20190;-57
2023/09/30 07:08:30;;;;;;;0.70;0.70;;;16.20;78.20;15.40;96971.00;;;;4996773;28;20269;-57
2023/09/30 07:10:57;;;;;;;1.20;1.10;;;16.10;78.20;15.40;96980.00;;;;4996995;28;20274;-57
2023/09/30 07:13:25;;;;;;;1.17;1.07;;;16.10;79.30;15.40;96969.00;;;;4996545;28;20186;-57
2023/09/30 07:15:52;;;;;;;1.00;1.00;;;16.10;79.80;15.30;96965.00;;;;4996378;28;20214;-57
2023/09/30 07:18:19;;;;;;;0.60;0.60;;;16.00;80.20;15.30;96977.00;;;;4996832;28;20677;-56
2023/09/30 07:20:46;;;;;;;1.17;1.17;;;15.90;80.20;15.30;96986.00;;;;4996871;28;20206;-56
2023/09/30 07:23:14;;;;;;;0.90;0.90;;;15.90;81.50;15.20;96983.00;;;;4996163;28;20285;-56
2023/09/30 07:25:42;;;;;;;1.00;1.00;;;15.90;81.10;15.20;96985.00;;;;4996354;28;20272;-56
2023/09/30 07:28:11;;;;;;;0.80;0.80;;;15.90;80.70;15.40;97006.00;;;;4996221;28;20193;-57
2023/09/30 07:30:39;;;;;;;1.33;1.03;;;16.00;81.30;15.70;97025.00;;;;4996395;28;20189;-56
2023/09/30 07:33:07;;;;;;;0.60;0.60;;;16.10;82.70;15.90;97021.00;;;;4996321;28;20273;-55
2023/09/30 07:35:35;;;;;;;2.30;1.77;;;16.40;85.10;15.70;97019.00;;;;4996232;28;20249;-56
2023/09/30 07:38:04;;;;;;;2.83;2.13;;;16.30;87.30;15.80;97016.00;;;;4996455;28;20244;-56
2023/09/30 07:40:32;;;;;;;2.23;1.43;;;16.40;87.20;15.80;97009.00;;;;4996467;28;20190;-56
2023/09/30 07:43:01;;;;;;;7.20;1.07;;;16.40;87.20;15.90;97007.00;;;;4996487;28;20268;-56
2023/09/30 07:45:28;;;;;;;0.77;0.77;;;16.40;87.30;16.00;97006.00;;;;4995974;28;20277;-56
2023/09/30 07:47:55;;;;;;;1.07;1.03;;;16.60;88.00;16.10;97016.00;;;;4978622;28;20611;-56
2023/09/30 07:50:22;;;;;;;1.53;1.43;;;16.70;86.30;16.10;97011.00;;;;4995877;28;20202;-57
2023/09/30 07:52:49;;;;;;;1.13;1.13;;;16.80;88.60;16.40;97007.00;;;;4995748;28;20689;-56
2023/09/30 07:55:16;;;;;;;1.43;1.33;;;;;16.60;97027.00;;;;4995796;28;20678;-57
2023/09/30 07:57:44;;;;;;;0.87;0.87;;;;;16.80;97008.00;;;;4995550;28;20198;-56
2023/09/30 08:00:15;;;;;;;1.53;1.43;;;17.20;90.40;16.80;97007.00;;;;4995757;28;20190;-56
2023/09/30 08:02:43;;;;;;;1.30;1.20;;;17.20;93.40;16.70;97007.00;;;;4995822;28;20371;-56
2023/09/30 08:05:11;;;;;;;2.87;1.40;;;17.30;90.30;16.70;97009.00;;;;4995812;28;20225;-58
2023/09/30 08:07:39;;;;;;;1.10;1.10;;;17.20;88.50;16.80;97002.00;;;;4994163;28;20190;-57
2023/09/30 08:10:12;;;;;;;7.07;1.50;;;17.30;91.40;17.00;96996.00;;;;4995519;28;20194;-57
2023/09/30 08:12:39;;;;;;;1.07;0.60;;;17.70;62.80;17.40;96998.00;;;;4995373;28;20218;-57
2023/09/30 08:15:08;;;;;;;1.73;1.00;;;17.70;63.50;17.50;97003.00;;;;4995618;28;20197;-57
2023/09/30 08:17:37;;;;;;;2.80;1.33;;;17.90;61.00;17.50;97011.00;;;;4995415;28;20261;-57
2023/09/30 08:20:05;;;;;;;3.23;1.60;;;18.00;60.90;17.70;97004.00;;;;4995278;28;20198;-57
2023/09/30 08:22:32;;;;;;;0.70;0.70;;;18.10;60.70;17.90;97014.00;;;;4995215;28;20214;-57
2023/09/30 08:25:00;;;;;;;1.20;1.17;;;18.50;58.10;18.10;97013.00;;;;4995238;28;20186;-55
2023/09/30 08:27:27;;;;;;;0.90;0.90;;;18.50;58.70;18.20;97020.00;;;;4995249;28;20194;-55
2023/09/30 08:29:54;;;;;;;5.20;3.63;;;18.70;55.20;18.40;97020.00;;;;4995008;28;20244;-55
2023/09/30 08:32:21;;;;;;;4.87;4.37;;;18.70;55.80;18.50;97012.00;;;;4994855;28;20218;-56
2023/09/30 08:34:49;;;;;;;3.37;1.87;;;18.90;55.00;18.50;97013.00;;;;4994519;28;20186;-56
2023/09/30 08:37:16;;;;;;;0.90;0.90;;;18.90;53.90;18.20;97024.00;;;;4994584;28;20226;-55
2023/09/30 08:39:43;;;;;;;1.47;1.37;;;18.80;53.50;18.10;97013.00;;;;4994919;28;20665;-55
2023/09/30 08:42:12;;;;;;;1.57;1.47;;;18.70;54.70;18.30;97003.00;;;;4994646;28;20229;-55
2023/09/30 08:44:40;;;;;;;0.60;0.60;;;18.80;54.60;18.30;97002.00;;;;4994844;28;20213;-55
2023/09/30 08:47:09;;;;;;;1.73;1.63;;;18.80;52.90;18.50;97006.00;;;;4994913;28;20201;-56
2023/09/30 08:49:39;;;;;;;1.40;1.27;;;18.90;52.50;18.40;97013.00;;;;4994736;28;20201;-55
2023/09/30 08:52:10;;;;;;;1.20;1.20;;;18.90;52.80;18.40;97007.00;;;;4994580;28;20210;-55
2023/09/30 08:54:38;;;;;;;0.97;0.97;;;18.80;52.40;18.30;96993.00;;;;4994586;28;20171;-56
2023/09/30 08:57:06;;;;;;;4.53;1.73;;;18.80;51.90;18.30;97002.00;;;;4994578;28;20577;-57
2023/09/30 08:59:35;;;;;;;2.00;1.70;;;18.80;51.60;18.40;97002.00;;;;4994292;28;20269;-56
2023/09/30 09:02:03;;;;;;;2.27;1.90;;;18.80;52.10;18.50;96992.00;;;;4994241;28;20220;-56
2023/09/30 09:04:32;;;;;;;1.30;0.90;;;18.90;51.90;18.70;97001.00;;;;4994295;28;20189;-56
2023/09/30 09:06:59;;;;;;;0.87;0.87;;;19.00;52.10;18.60;97009.00;;;;4994659;28;20567;-56
2023/09/30 09:09:27;;;;;;;1.00;1.00;;;19.10;51.60;18.80;97022.00;;;;4994817;28;20198;-56
2023/09/30 09:11:54;;;;;;;0.93;0.93;;;19.20;51.20;18.70;97013.00;;;;4994213;28;20214;-56
2023/09/30 09:14:38;;;;;;;1.00;1.00;;;19.20;50.40;18.80;97017.00;;;;4994433;28;20201;-56
2023/09/30 09:17:08;;;;;;;1.10;1.10;;;19.20;50.70;18.70;97020.00;;;;4994942;28;20201;-56
2023/09/30 09:19:35;;;;;;;0.90;0.90;;;19.20;50.10;19.10;97020.00;;;;4994146;28;20194;-56
2023/09/30 09:22:04;;;;;;;2.70;1.77;;;19.40;50.50;19.40;97014.00;;;;4994154;28;20213;-56
2023/09/30 09:24:35;;;;;;;2.20;1.73;;;;;19.40;97017.00;;;;4994298;28;20684;-56
2023/09/30 09:27:07;;;;;;;0.97;0.90;;;;;19.50;97017.00;;;;4994249;28;20635;-59
2023/09/30 09:29:36;;;;;;;0.97;0.97;;;;;19.50;97015.00;;;;4992835;28;20256;-57
2023/09/30 09:32:14;;;;;;;1.00;1.00;;;;;19.50;97016.00;;;;4994025;28;20705;-56
2023/09/30 09:34:43;;;;;;;1.70;1.33;;;;;19.50;97012.00;;;;4993958;28;20193;-56
2023/09/30 09:37:18;;;;;;;0.83;0.83;;;20.00;45.80;19.40;96993.00;;;;4994039;28;20245;-56
2023/09/30 09:39:55;;;;;;;0.83;0.83;;;19.80;47.20;19.30;97010.00;;;;4994170;28;20213;-56
2023/09/30 09:42:27;;;;;;;1.03;1.03;;;19.80;47.20;19.40;97004.00;;;;4994736;28;20220;-56
2023/09/30 09:44:57;;;;;;;0.90;0.90;;;19.90;46.30;19.70;97000.00;;;;4993951;28;20270;-56
2023/09/30 09:47:25;;;;;;;1.13;1.07;;;20.00;46.50;19.80;96992.00;;;;4993449;28;20241;-56
2023/09/30 09:49:54;;;;;;;0.60;0.60;;;20.10;46.70;20.00;96992.00;;;;4994142;28;20186;-57
2023/09/30 09:52:22;;;;;;;3.93;1.23;;;20.30;45.50;20.10;96996.00;;;;4993726;28;20210;-56
2023/09/30 09:54:52;;;;;;;1.07;1.07;;;20.40;43.70;19.90;96992.00;;;;4994066;28;20186;-56
2023/09/30 09:57:20;;;;;;;1.30;1.27;;;20.30;43.50;19.90;96984.00;;;;4993599;28;20296;-56
2023/09/30 09:59:49;;;;;;;1.33;0.83;;;20.30;42.50;19.80;96987.00;;;;4993638;28;20281;-56
2023/09/30 10:02:18;;;;;;;0.80;0.80;;;20.30;42.70;19.90;96983.00;;;;4993753;28;20257;-56
2023/09/30 10:04:46;;;;;;;0.63;0.63;;;20.30;42.80;20.30;96980.00;;;;4994009;28;20186;-56
2023/09/30 10:07:21;;;;;;;0.70;0.70;;;20.50;42.50;20.20;96978.00;;;;4993884;28;20193;-56
2023/09/30 10:09:53;;;;;;;3.10;1.27;;;20.50;42.90;20.60;96976.00;;;;4993865;28;20185;-56
2023/09/30 10:12:21;;;;;;;0.70;0.70;;;20.90;42.30;20.60;96977.00;;;;4993920;28;20217;-56
2023/09/30 10:14:48;;;;;;;0.65;0.65;;;20.90;41.50;20.80;96976.00;;;;4993600;28;20599;-56
2023/09/30 10:17:16;;;;;;;1.83;1.30;;;21.10;40.80;20.50;96987.00;;;;4994769;28;20214;-56
2023/09/30 10:20:06;;;;;;;10.17;1.20;;;21.00;39.50;19.70;96991.00;;;;4993662;28;20226;-56
2023/09/30 10:22:33;;;;;;;1.03;1.03;;;20.30;38.60;19.80;96982.00;;;;4993597;28;20312;-56
2023/09/30 10:25:22;;;;;;;2.20;1.37;;;20.30;39.80;20.40;96980.00;;;;4993806;28;20620;-56
2023/09/30 10:27:51;;;;;;;1.40;1.40;;;20.70;40.00;20.90;96971.00;;;;4993669;28;20206;-57
2023/09/30 10:30:18;;;;;;;1.47;1.37;;;21.00;38.10;20.80;96976.00;;;;4993472;28;20285;-56
2023/09/30 10:33:11;;;;;;;2.37;1.23;;;21.10;37.60;20.50;96976.00;;;;4976105;28;20224;-56
2023/09/30 10:35:54;;;;;;;1.53;1.43;;;21.00;37.30;20.50;96982.00;;;;4986909;28;20293;-56
2023/09/30 10:38:40;;;;;;;1.70;1.40;;;21.00;37.30;20.60;96980.00;;;;4993732;28;20189;-56
2023/09/30 10:41:09;;;;;;;1.37;1.37;;;21.00;37.30;20.70;96981.00;;;;4976811;28;20217;-56
2023/09/30 10:43:40;;;;;;;1.27;1.20;;;21.10;37.40;20.90;96965.00;;;;4993316;28;20245;-56
2023/09/30 10:46:31;;;;;;;3.80;1.67;;;21.20;36.90;21.00;96970.00;;;;4993606;28;20261;-56
2023/09/30 10:49:38;;;;;;;3.47;1.20;;;21.30;34.50;21.30;96959.00;;;;4993557;28;20187;-56
2023/09/30 10:52:05;;;;;;;0.70;0.70;;;21.60;35.90;21.60;96949.00;;;;4992101;28;20222;-57
2023/09/30 10:54:34;;;;;;;2.67;1.57;;;21.80;35.50;21.90;96954.00;;;;4993775;28;20186;-56
2023/09/30 10:57:03;;;;;;;1.73;1.63;;;22.10;34.10;22.20;96950.00;;;;4993025;28;20245;-57
2023/09/30 10:59:34;;;;;;;1.45;1.35;;;22.30;34.10;21.70;96939.00;;;;4995302;28;20190;-55
2023/09/30 11:02:02;;;;;;;7.53;1.85;;;22.10;34.90;22.20;96937.00;;;;4997025;28;20241;-56
2023/09/30 11:04:29;;;;;;;4.55;1.75;;;22.50;33.40;22.60;96933.00;;;;4996738;28;20191;-56